Time;durP1;ratioP1;P1;durP2;ratioP2;P2;SDS_P1;SDS_P2;PMS_P1;PMS_P2;Temp;Humidity;BMP_temperature;BMP_pressure;BME280_temperature;BME280_humidity;BME280_pressure;Samples;Min_cycle;Max_cycle;Signal;HPM_P1;HPM_P2
2023/11/24 00:00:00;;;;;;;55.50;20.77;;;10.50;49.40;;;;;;345702;28;1070;-57
2023/11/24 00:00:12;;;;;;;59.13;21.80;;;10.50;49.50;;;;;;345696;28;945;-58
2023/11/24 00:00:22;;;;;;;64.00;24.30;;;10.50;49.50;;;;;;345637;28;980;-57
2023/11/24 00:00:33;;;;;;;70.78;27.13;;;10.50;49.50;;;;;;345618;28;1084;-58
2023/11/24 00:00:44;;;;;;;75.50;29.48;;;10.50;49.50;;;;;;345676;28;1028;-57
2023/11/24 00:00:54;;;;;;;77.15;30.30;;;10.50;49.60;;;;;;345545;28;1482;-58
2023/11/24 00:01:06;;;;;;;76.70;29.53;;;10.40;49.60;;;;;;345734;28;852;-57
2023/11/24 00:01:16;;;;;;;76.63;28.38;;;10.40;49.60;;;;;;345633;28;1733;-58
2023/11/24 00:01:27;;;;;;;75.87;28.83;;;10.40;49.70;;;;;;345589;28;1103;-57
2023/11/24 00:01:38;;;;;;;74.72;28.92;;;10.40;49.70;;;;;;345689;28;1528;-56
2023/11/24 00:01:49;;;;;;;70.30;27.70;;;10.40;49.70;;;;;;345718;28;905;-57
2023/11/24 00:01:59;;;;;;;69.03;26.52;;;10.40;49.70;;;;;;345623;28;960;-57
2023/11/24 00:02:10;;;;;;;64.53;25.42;;;10.40;49.80;;;;;;345728;28;869;-57
2023/11/24 00:02:21;;;;;;;63.80;24.30;;;10.40;49.80;;;;;;345670;28;888;-57
2023/11/24 00:02:32;;;;;;;54.30;20.95;;;10.40;49.80;;;;;;345631;28;1004;-57
2023/11/24 00:02:43;;;;;;;45.72;17.95;;;10.40;49.80;;;;;;345558;28;861;-57
2023/11/24 00:02:54;;;;;;;37.65;15.20;;;10.40;49.90;;;;;;345681;28;1568;-58
2023/11/24 00:03:05;;;;;;;36.80;15.10;;;10.40;49.80;;;;;;345731;28;884;-58
2023/11/24 00:03:15;;;;;;;37.05;15.18;;;10.40;49.90;;;;;;345674;28;890;-58
2023/11/24 00:03:26;;;;;;;36.25;14.93;;;10.40;49.90;;;;;;345508;28;1910;-57
2023/11/24 00:03:37;;;;;;;31.20;13.35;;;10.40;49.90;;;;;;345682;28;945;-58
2023/11/24 00:03:47;;;;;;;25.10;11.40;;;10.40;49.90;;;;;;345640;28;1087;-57
2023/11/24 00:03:58;;;;;;;21.92;10.25;;;10.40;50.00;;;;;;345698;28;834;-57
2023/11/24 00:04:09;;;;;;;26.15;11.15;;;10.30;50.00;;;;;;345562;28;1112;-57
2023/11/24 00:04:20;;;;;;;35.00;14.48;;;10.30;50.10;;;;;;345721;28;881;-56
2023/11/24 00:04:31;;;;;;;46.33;18.70;;;10.40;50.10;;;;;;345628;28;980;-57
2023/11/24 00:04:43;;;;;;;52.22;21.17;;;10.40;50.10;;;;;;345705;28;1923;-56
2023/11/24 00:04:54;;;;;;;51.00;20.48;;;10.30;50.10;;;;;;345590;28;1011;-57
2023/11/24 00:05:09;;;;;;;46.47;17.95;;;10.30;50.10;;;;;;345679;28;1095;-58
2023/11/24 00:05:21;;;;;;;39.05;15.57;;;10.30;50.10;;;;;;345740;28;1066;-58
2023/11/24 00:05:32;;;;;;;36.00;14.38;;;10.40;50.10;;;;;;345624;28;1051;-57
2023/11/24 00:05:43;;;;;;;32.80;13.57;;;10.30;50.10;;;;;;345683;28;968;-56
2023/11/24 00:05:56;;;;;;;33.00;13.92;;;10.30;50.10;;;;;;345712;28;950;-57
2023/11/24 00:06:07;;;;;;;34.38;14.13;;;10.30;50.10;;;;;;345741;28;960;-58
2023/11/24 00:06:19;;;;;;;30.83;13.20;;;10.30;50.20;;;;;;345612;28;1018;-57
2023/11/24 00:06:32;;;;;;;24.42;11.05;;;10.30;50.20;;;;;;345744;28;974;-58
2023/11/24 00:06:43;;;;;;;19.42;9.32;;;10.30;50.20;;;;;;345660;28;1028;-57
2023/11/24 00:06:55;;;;;;;18.63;8.90;;;10.30;50.20;;;;;;345683;28;896;-58
2023/11/24 00:07:07;;;;;;;21.15;9.82;;;10.30;50.20;;;;;;345613;28;1314;-58
2023/11/24 00:07:18;;;;;;;22.85;10.48;;;10.30;50.20;;;;;;345728;28;1062;-56
2023/11/24 00:07:29;;;;;;;31.03;12.27;;;10.30;50.20;;;;;;345641;28;810;-57
2023/11/24 00:07:40;;;;;;;41.60;15.95;;;10.30;50.30;;;;;;345669;28;1128;-57
2023/11/24 00:07:50;;;;;;;49.63;19.30;;;10.30;50.30;;;;;;345633;28;947;-57
2023/11/24 00:08:04;;;;;;;56.07;22.13;;;10.30;50.20;;;;;;345737;28;983;-58
2023/11/24 00:08:14;;;;;;;66.82;26.70;;;10.30;50.20;;;;;;345730;28;964;-57
2023/11/24 00:08:25;;;;;;;83.00;32.20;;;10.30;50.20;;;;;;345656;28;1857;-58
2023/11/24 00:08:36;;;;;;;100.75;38.47;;;10.30;50.30;;;;;;345584;28;916;-57
2023/11/24 00:08:46;;;;;;;119.43;44.33;;;10.30;50.30;;;;;;345629;28;1150;-58
2023/11/24 00:08:57;;;;;;;127.18;48.65;;;10.30;50.40;;;;;;345683;28;987;-59
2023/11/24 00:09:08;;;;;;;118.87;48.43;;;10.30;50.40;;;;;;345760;28;853;-57
2023/11/24 00:09:19;;;;;;;104.50;45.73;;;10.30;50.30;;;;;;345577;28;1781;-59
2023/11/24 00:09:30;;;;;;;93.93;43.00;;;10.30;50.30;;;;;;345643;28;1071;-57
2023/11/24 00:09:40;;;;;;;93.75;45.28;;;10.30;50.30;;;;;;345499;28;1039;-57
2023/11/24 00:09:51;;;;;;;106.03;54.65;;;10.30;50.40;;;;;;345760;28;1110;-58
2023/11/24 00:10:04;;;;;;;129.00;68.25;;;10.30;50.40;;;;;;345633;28;872;-57
2023/11/24 00:10:15;;;;;;;144.85;78.78;;;10.30;50.50;;;;;;345706;28;1051;-57
2023/11/24 00:10:28;;;;;;;140.52;76.57;;;10.30;50.50;;;;;;345687;28;1158;-58
2023/11/24 00:10:39;;;;;;;118.90;65.55;;;10.30;50.50;;;;;;345697;28;1103;-59
2023/11/24 00:10:50;;;;;;;94.43;53.33;;;10.30;50.50;;;;;;345590;28;927;-56
2023/11/24 00:11:03;;;;;;;73.88;42.05;;;10.30;50.50;;;;;;345706;28;841;-58
2023/11/24 00:11:15;;;;;;;63.35;37.17;;;10.30;50.40;;;;;;345697;28;836;-59
2023/11/24 00:11:26;;;;;;;53.00;32.45;;;10.30;50.50;;;;;;345688;28;1000;-57
2023/11/24 00:11:38;;;;;;;44.35;27.33;;;10.30;50.40;;;;;;345619;28;1164;-57
2023/11/24 00:11:49;;;;;;;34.75;21.80;;;10.30;50.30;;;;;;345643;28;1111;-57
2023/11/24 00:12:00;;;;;;;30.33;18.67;;;10.30;50.30;;;;;;345720;28;879;-57
2023/11/24 00:12:11;;;;;;;28.52;18.08;;;10.30;50.30;;;;;;345748;28;988;-57
2023/11/24 00:12:21;;;;;;;27.67;17.80;;;10.30;50.30;;;;;;345568;28;1047;-57
2023/11/24 00:12:32;;;;;;;28.13;18.23;;;10.30;50.20;;;;;;345605;28;984;-57
2023/11/24 00:12:43;;;;;;;30.35;18.90;;;10.30;50.30;;;;;;345746;28;936;-57
2023/11/24 00:12:55;;;;;;;30.30;19.60;;;10.30;50.20;;;;;;345715;28;935;-58
2023/11/24 00:13:06;;;;;;;31.58;19.67;;;10.30;50.20;;;;;;345573;28;1209;-57
2023/11/24 00:13:18;;;;;;;26.48;17.70;;;10.30;50.20;;;;;;345714;28;1031;-60
2023/11/24 00:13:29;;;;;;;23.75;15.68;;;10.30;50.20;;;;;;345710;28;947;-57
2023/11/24 00:13:39;;;;;;;21.70;15.20;;;10.30;50.20;;;;;;345687;28;956;-57
2023/11/24 00:13:50;;;;;;;22.92;15.93;;;10.30;50.20;;;;;;345611;28;1083;-57
2023/11/24 00:14:01;;;;;;;23.73;17.17;;;10.30;50.20;;;;;;345665;28;1860;-58
2023/11/24 00:14:12;;;;;;;23.40;17.33;;;10.30;50.20;;;;;;345700;28;1015;-57
2023/11/24 00:14:23;;;;;;;22.42;16.73;;;10.30;50.20;;;;;;345670;28;1108;-58
2023/11/24 00:14:34;;;;;;;20.77;15.57;;;10.30;50.20;;;;;;345655;28;931;-57
2023/11/24 00:14:45;;;;;;;19.98;13.82;;;10.30;50.20;;;;;;345697;28;1058;-57
2023/11/24 00:14:56;;;;;;;18.30;11.82;;;10.30;50.20;;;;;;345700;28;1189;-58
2023/11/24 00:15:07;;;;;;;15.40;9.85;;;10.30;50.20;;;;;;345652;28;849;-57
2023/11/24 00:15:18;;;;;;;12.20;8.43;;;10.30;50.20;;;;;;345588;28;1102;-57
2023/11/24 00:15:28;;;;;;;10.95;7.55;;;10.30;50.20;;;;;;345701;28;972;-57
2023/11/24 00:15:42;;;;;;;10.90;7.23;;;10.30;50.20;;;;;;345659;28;1094;-58
2023/11/24 00:15:53;;;;;;;11.43;7.38;;;10.30;50.20;;;;;;345716;28;949;-57
2023/11/24 00:16:04;;;;;;;11.23;7.43;;;10.30;50.20;;;;;;345581;28;964;-58
2023/11/24 00:16:15;;;;;;;12.20;7.15;;;10.30;50.20;;;;;;345734;28;979;-57
2023/11/24 00:16:26;;;;;;;11.67;6.90;;;10.30;50.20;;;;;;345619;28;1123;-57
2023/11/24 00:16:40;;;;;;;10.93;6.63;;;10.30;50.10;;;;;;345651;28;968;-57
2023/11/24 00:16:51;;;;;;;9.27;6.40;;;10.30;50.10;;;;;;345591;28;1028;-57
2023/11/24 00:17:02;;;;;;;17.23;6.47;;;10.30;50.20;;;;;;345685;28;806;-58
2023/11/24 00:17:13;;;;;;;18.67;6.45;;;10.30;50.10;;;;;;345671;28;1190;-58
2023/11/24 00:17:23;;;;;;;19.63;6.63;;;10.30;50.10;;;;;;345537;28;1275;-58
2023/11/24 00:17:34;;;;;;;13.05;6.68;;;10.30;50.20;;;;;;345706;28;1091;-56
2023/11/24 00:17:45;;;;;;;11.05;6.80;;;10.30;50.20;;;;;;345645;28;888;-59
2023/11/24 00:17:56;;;;;;;10.82;6.53;;;10.30;50.20;;;;;;345679;28;996;-59
2023/11/24 00:18:07;;;;;;;9.82;6.70;;;10.30;50.20;;;;;;345653;28;1008;-57
2023/11/24 00:18:21;;;;;;;11.20;6.75;;;10.30;50.30;;;;;;345687;28;979;-57
2023/11/24 00:18:33;;;;;;;11.63;6.75;;;10.30;50.30;;;;;;345611;28;1062;-57
2023/11/24 00:18:43;;;;;;;10.63;6.72;;;10.30;50.30;;;;;;345705;28;854;-57
2023/11/24 00:18:54;;;;;;;9.47;6.97;;;10.30;50.20;;;;;;345609;28;1031;-58
2023/11/24 00:19:13;;;;;;;9.73;7.03;;;10.30;50.30;;;;;;345681;28;1147;-58
2023/11/24 00:19:25;;;;;;;10.15;7.32;;;10.30;50.30;;;;;;345703;28;944;-57
2023/11/24 00:19:35;;;;;;;10.40;7.60;;;10.30;50.20;;;;;;345700;28;988;-57
2023/11/24 00:19:47;;;;;;;10.60;7.75;;;10.30;50.20;;;;;;345599;28;1019;-57
2023/11/24 00:19:58;;;;;;;10.40;8.02;;;10.30;50.20;;;;;;345718;28;852;-57
2023/11/24 00:20:10;;;;;;;10.68;7.60;;;10.30;50.20;;;;;;345561;28;1488;-57
2023/11/24 00:20:21;;;;;;;10.40;6.75;;;10.30;50.10;;;;;;345704;28;987;-57
2023/11/24 00:20:32;;;;;;;10.77;6.60;;;10.30;50.10;;;;;;345594;28;1083;-57
2023/11/24 00:20:42;;;;;;;9.73;6.20;;;10.30;50.10;;;;;;345720;28;1046;-58
2023/11/24 00:20:53;;;;;;;9.30;6.20;;;10.30;50.20;;;;;;345614;28;896;-57
2023/11/24 00:21:06;;;;;;;10.50;6.45;;;10.30;50.10;;;;;;345688;28;1078;-57
2023/11/24 00:21:17;;;;;;;10.27;6.15;;;10.30;50.10;;;;;;345214;28;1130;-56
2023/11/24 00:21:28;;;;;;;8.32;5.70;;;10.30;50.10;;;;;;345697;28;814;-57
2023/11/24 00:21:39;;;;;;;7.63;5.50;;;10.30;50.10;;;;;;345597;28;1000;-57
2023/11/24 00:21:50;;;;;;;8.73;5.70;;;10.30;50.10;;;;;;345681;28;1171;-57
2023/11/24 00:22:00;;;;;;;9.30;5.97;;;10.30;50.10;;;;;;345592;28;1083;-59
2023/11/24 00:22:11;;;;;;;9.37;6.20;;;10.30;50.10;;;;;;345611;28;1102;-56
2023/11/24 00:22:22;;;;;;;8.85;6.50;;;10.30;50.10;;;;;;345740;28;832;-56
2023/11/24 00:22:32;;;;;;;8.40;6.20;;;10.30;50.10;;;;;;345659;28;851;-59
2023/11/24 00:22:43;;;;;;;8.27;6.20;;;10.30;50.10;;;;;;345565;28;1020;-57
2023/11/24 00:22:55;;;;;;;8.43;6.00;;;10.20;50.10;;;;;;345664;28;932;-58
2023/11/24 00:23:06;;;;;;;8.27;5.90;;;10.30;50.10;;;;;;345729;28;810;-56
2023/11/24 00:23:16;;;;;;;8.32;5.30;;;10.30;50.20;;;;;;345571;28;1026;-57
2023/11/24 00:23:27;;;;;;;7.50;5.13;;;10.30;50.20;;;;;;345644;28;1934;-57
2023/11/24 00:23:38;;;;;;;7.63;5.10;;;10.30;50.20;;;;;;345625;28;1098;-57
2023/11/24 00:23:49;;;;;;;8.32;5.03;;;10.30;50.20;;;;;;345733;28;892;-57
2023/11/24 00:24:04;;;;;;;9.60;5.03;;;10.20;50.30;;;;;;345589;28;1062;-57
2023/11/24 00:24:14;;;;;;;10.02;5.45;;;10.30;50.20;;;;;;345720;28;1106;-57
2023/11/24 00:24:25;;;;;;;10.18;5.47;;;10.30;50.20;;;;;;345656;28;817;-58
2023/11/24 00:24:37;;;;;;;9.82;5.32;;;10.20;50.20;;;;;;345504;28;1535;-57
2023/11/24 00:24:51;;;;;;;9.05;5.47;;;10.30;50.30;;;;;;345732;28;1076;-59
2023/11/24 00:25:02;;;;;;;8.35;6.00;;;10.20;50.30;;;;;;345644;28;1909;-57
2023/11/24 00:25:13;;;;;;;9.00;6.00;;;10.20;50.20;;;;;;345642;28;1825;-57
2023/11/24 00:25:24;;;;;;;9.38;5.85;;;10.30;50.20;;;;;;345655;28;987;-58
2023/11/24 00:25:35;;;;;;;9.83;5.73;;;10.30;50.30;;;;;;345689;28;975;-56
2023/11/24 00:25:46;;;;;;;8.68;5.55;;;10.20;50.20;;;;;;345583;28;1011;-58
2023/11/24 00:25:56;;;;;;;7.78;5.35;;;10.30;50.20;;;;;;345618;28;976;-57
2023/11/24 00:26:07;;;;;;;7.95;5.18;;;10.30;50.20;;;;;;345622;28;1095;-60
2023/11/24 00:26:20;;;;;;;8.43;4.97;;;10.30;50.10;;;;;;345725;28;903;-59
2023/11/24 00:26:31;;;;;;;8.15;4.85;;;10.20;50.10;;;;;;345840;28;949;-57
2023/11/24 00:26:42;;;;;;;8.13;5.13;;;10.20;50.10;;;;;;345681;28;1826;-57
2023/11/24 00:26:53;;;;;;;8.98;5.82;;;10.20;50.10;;;;;;345685;28;885;-58
2023/11/24 00:27:06;;;;;;;9.38;6.00;;;10.30;50.10;;;;;;345583;28;1040;-60
2023/11/24 00:27:16;;;;;;;8.73;5.88;;;10.30;50.10;;;;;;345652;28;1214;-57
2023/11/24 00:27:27;;;;;;;8.07;5.47;;;10.20;50.10;;;;;;345606;28;834;-56
2023/11/24 00:27:38;;;;;;;8.07;5.40;;;10.20;50.00;;;;;;345654;28;1014;-56
2023/11/24 00:27:51;;;;;;;8.20;5.20;;;10.20;50.00;;;;;;345634;28;814;-59
2023/11/24 00:28:04;;;;;;;8.73;5.10;;;10.30;50.10;;;;;;345668;28;877;-58
2023/11/24 00:28:15;;;;;;;8.25;4.93;;;10.30;50.10;;;;;;345557;28;1127;-57
2023/11/24 00:28:25;;;;;;;7.97;4.93;;;10.30;50.10;;;;;;345645;28;842;-56
2023/11/24 00:28:36;;;;;;;7.82;5.05;;;10.30;50.00;;;;;;345615;28;1034;-59
2023/11/24 00:28:47;;;;;;;8.45;5.25;;;10.30;50.10;;;;;;345591;28;992;-57
2023/11/24 00:28:58;;;;;;;9.13;5.25;;;10.30;50.10;;;;;;345657;28;1058;-56
2023/11/24 00:29:09;;;;;;;9.73;5.47;;;10.30;50.20;;;;;;345649;28;991;-57
2023/11/24 00:29:21;;;;;;;10.05;5.55;;;10.30;50.10;;;;;;345486;28;1860;-57
2023/11/24 00:29:32;;;;;;;8.65;5.40;;;10.30;50.10;;;;;;345694;28;1062;-57
2023/11/24 00:29:43;;;;;;;8.43;5.60;;;10.30;50.10;;;;;;345638;28;870;-58
2023/11/24 00:29:56;;;;;;;8.73;5.65;;;10.30;50.10;;;;;;345539;28;1106;-57
2023/11/24 00:30:07;;;;;;;10.25;6.07;;;10.30;50.10;;;;;;345701;28;980;-56
2023/11/24 00:30:18;;;;;;;10.82;5.82;;;10.20;50.10;;;;;;345714;28;853;-57
2023/11/24 00:30:29;;;;;;;10.45;5.57;;;10.20;50.10;;;;;;345569;28;1095;-58
2023/11/24 00:30:39;;;;;;;8.73;5.43;;;10.30;50.10;;;;;;345654;28;1038;-58
2023/11/24 00:30:50;;;;;;;8.30;5.40;;;10.30;50.10;;;;;;345656;28;1004;-57
2023/11/24 00:31:05;;;;;;;7.63;5.30;;;10.30;50.10;;;;;;345526;28;1438;-57
2023/11/24 00:31:16;;;;;;;8.55;5.65;;;10.30;50.10;;;;;;345641;28;1027;-56
2023/11/24 00:31:27;;;;;;;8.53;5.60;;;10.30;50.20;;;;;;345656;28;1003;-57
2023/11/24 00:31:38;;;;;;;7.70;5.30;;;10.30;50.20;;;;;;345558;28;1640;-57
2023/11/24 00:31:48;;;;;;;7.30;5.07;;;10.20;50.20;;;;;;345659;28;1028;-57
2023/11/24 00:31:59;;;;;;;7.15;4.93;;;10.30;50.20;;;;;;345661;28;1023;-58
2023/11/24 00:32:10;;;;;;;7.78;4.97;;;10.30;50.20;;;;;;345531;28;1039;-56
2023/11/24 00:32:20;;;;;;;7.30;4.77;;;10.30;50.20;;;;;;345611;28;1091;-57
2023/11/24 00:32:32;;;;;;;6.95;4.90;;;10.30;50.20;;;;;;345665;28;880;-56
2023/11/24 00:32:45;;;;;;;9.52;4.90;;;10.30;50.20;;;;;;345677;28;1024;-58
2023/11/24 00:32:55;;;;;;;10.40;5.14;;;10.30;50.20;;;;;;345693;28;1039;-56
2023/11/24 00:33:06;;;;;;;8.97;5.00;;;10.30;50.10;;;;;;345610;28;909;-56
2023/11/24 00:33:19;;;;;;;10.60;5.22;;;10.30;50.20;;;;;;345622;28;1115;-57
2023/11/24 00:33:30;;;;;;;8.68;5.10;;;10.30;50.20;;;;;;345618;28;1190;-56
2023/11/24 00:33:42;;;;;;;8.73;5.25;;;10.20;50.30;;;;;;345617;28;1111;-58
2023/11/24 00:33:53;;;;;;;7.57;4.93;;;10.30;50.40;;;;;;345601;28;1047;-57
2023/11/24 00:34:03;;;;;;;7.72;4.88;;;10.30;50.40;;;;;;345629;28;1367;-57
2023/11/24 00:34:14;;;;;;;8.38;4.90;;;10.30;50.40;;;;;;345597;28;1415;-56
2023/11/24 00:34:25;;;;;;;8.85;5.00;;;10.30;50.30;;;;;;345682;28;1004;-57
2023/11/24 00:34:38;;;;;;;9.60;5.72;;;10.30;50.30;;;;;;345602;28;1411;-57
2023/11/24 00:34:50;;;;;;;9.95;6.10;;;10.30;50.20;;;;;;345591;28;1035;-57
2023/11/24 00:35:01;;;;;;;11.15;6.28;;;10.30;50.20;;;;;;345723;28;948;-57
2023/11/24 00:35:12;;;;;;;11.82;6.00;;;10.30;50.20;;;;;;345615;28;1197;-57
2023/11/24 00:35:23;;;;;;;11.43;5.80;;;10.40;50.20;;;;;;345642;28;857;-56
2023/11/24 00:35:35;;;;;;;10.15;5.28;;;10.30;50.20;;;;;;345638;28;991;-56
2023/11/24 00:35:46;;;;;;;9.72;4.82;;;10.30;50.30;;;;;;345673;28;984;-56
2023/11/24 00:35:56;;;;;;;10.13;4.70;;;10.30;50.50;;;;;;345669;28;1018;-56
2023/11/24 00:36:07;;;;;;;9.45;4.88;;;10.40;50.50;;;;;;345687;28;818;-56
2023/11/24 00:36:18;;;;;;;8.82;4.88;;;10.30;50.40;;;;;;345682;28;947;-56
2023/11/24 00:36:29;;;;;;;8.70;5.10;;;10.30;50.40;;;;;;345541;28;972;-56
2023/11/24 00:36:41;;;;;;;7.72;4.88;;;10.30;50.30;;;;;;345655;28;866;-57
2023/11/24 00:36:52;;;;;;;7.95;4.88;;;10.30;50.30;;;;;;345650;28;1115;-56
2023/11/24 00:37:03;;;;;;;6.72;4.40;;;10.30;50.30;;;;;;345651;28;1111;-58
2023/11/24 00:37:13;;;;;;;7.15;4.47;;;10.40;50.30;;;;;;345632;28;834;-57
2023/11/24 00:37:24;;;;;;;6.97;4.53;;;10.30;50.30;;;;;;345560;28;981;-58
2023/11/24 00:37:35;;;;;;;7.13;4.50;;;10.30;50.30;;;;;;345660;28;999;-58
2023/11/24 00:37:45;;;;;;;7.90;4.50;;;10.30;50.20;;;;;;345610;28;1551;-56
2023/11/24 00:37:56;;;;;;;8.10;4.57;;;10.30;50.10;;;;;;345563;28;988;-57
2023/11/24 00:38:08;;;;;;;7.27;4.53;;;10.40;50.10;;;;;;345661;28;984;-56
2023/11/24 00:38:19;;;;;;;7.63;4.88;;;10.30;50.10;;;;;;345679;28;903;-57
2023/11/24 00:38:30;;;;;;;8.33;5.30;;;10.30;50.10;;;;;;345602;28;1047;-57
2023/11/24 00:38:40;;;;;;;8.55;5.28;;;10.30;50.10;;;;;;345614;28;1051;-57
2023/11/24 00:38:51;;;;;;;8.55;5.07;;;10.30;50.10;;;;;;345614;28;1624;-56
2023/11/24 00:39:04;;;;;;;8.75;5.00;;;10.30;50.10;;;;;;345529;28;1080;-58
2023/11/24 00:39:15;;;;;;;8.65;4.85;;;10.30;50.10;;;;;;345675;28;931;-57
2023/11/24 00:39:25;;;;;;;8.40;4.72;;;10.30;50.00;;;;;;345638;28;1482;-57
2023/11/24 00:39:39;;;;;;;7.93;4.70;;;10.30;50.10;;;;;;345496;28;1007;-57
2023/11/24 00:39:50;;;;;;;6.97;4.57;;;10.30;50.10;;;;;;345672;28;889;-56
2023/11/24 00:40:07;;;;;;;6.53;4.60;;;10.30;50.10;;;;;;345692;28;833;-59
2023/11/24 00:40:18;;;;;;;7.55;4.63;;;10.30;50.10;;;;;;345653;28;1045;-56
2023/11/24 00:40:30;;;;;;;7.85;4.65;;;10.30;50.10;;;;;;345633;28;1000;-57
2023/11/24 00:40:41;;;;;;;6.90;4.70;;;10.30;50.10;;;;;;345558;28;1119;-57
2023/11/24 00:40:52;;;;;;;7.73;4.70;;;10.30;50.10;;;;;;345606;28;1349;-58
2023/11/24 00:41:03;;;;;;;9.48;4.75;;;10.30;50.10;;;;;;345663;28;1127;-56
2023/11/24 00:41:14;;;;;;;10.35;4.80;;;10.30;50.20;;;;;;345538;28;1119;-59
2023/11/24 00:41:27;;;;;;;10.03;4.87;;;10.30;50.20;;;;;;345601;28;1522;-57
2023/11/24 00:41:39;;;;;;;8.10;5.05;;;10.30;50.30;;;;;;345605;28;1190;-57
2023/11/24 00:41:50;;;;;;;8.90;5.10;;;10.30;50.30;;;;;;345585;28;1003;-57
2023/11/24 00:42:00;;;;;;;9.40;5.00;;;10.30;50.30;;;;;;345705;28;1059;-57
2023/11/24 00:42:11;;;;;;;9.38;4.80;;;10.30;50.30;;;;;;345616;28;987;-58
2023/11/24 00:42:23;;;;;;;8.75;5.25;;;10.30;50.30;;;;;;345480;28;2492;-57
2023/11/24 00:42:35;;;;;;;9.85;5.55;;;10.30;50.40;;;;;;345615;28;1359;-58
2023/11/24 00:42:46;;;;;;;10.00;5.80;;;10.30;50.30;;;;;;345685;28;1044;-57
2023/11/24 00:42:56;;;;;;;10.13;5.83;;;10.30;50.30;;;;;;345676;28;1031;-56
2023/11/24 00:43:08;;;;;;;8.53;6.10;;;10.30;50.30;;;;;;345495;28;1203;-56
2023/11/24 00:43:21;;;;;;;8.88;6.13;;;10.30;50.30;;;;;;345641;28;992;-56
2023/11/24 00:43:32;;;;;;;8.90;6.10;;;10.30;50.30;;;;;;345533;28;1918;-57
2023/11/24 00:43:45;;;;;;;9.63;6.20;;;10.30;50.30;;;;;;345641;28;1099;-59
2023/11/24 00:43:56;;;;;;;10.55;6.43;;;10.30;50.40;;;;;;345541;28;1201;-56
2023/11/24 00:44:06;;;;;;;10.60;5.93;;;10.30;50.40;;;;;;345674;28;929;-58
2023/11/24 00:44:17;;;;;;;8.85;5.57;;;10.30;50.40;;;;;;345583;28;1075;-57
2023/11/24 00:44:28;;;;;;;10.77;5.67;;;10.30;50.50;;;;;;345664;28;879;-57
2023/11/24 00:44:39;;;;;;;11.45;5.78;;;10.20;50.50;;;;;;345539;28;1134;-58
2023/11/24 00:44:50;;;;;;;10.85;5.72;;;10.20;50.40;;;;;;345644;28;1139;-58
2023/11/24 00:45:02;;;;;;;9.38;5.32;;;10.20;50.50;;;;;;345601;28;1930;-56
2023/11/24 00:45:13;;;;;;;9.48;5.10;;;10.20;50.50;;;;;;345630;28;1039;-57
2023/11/24 00:45:25;;;;;;;10.18;5.00;;;10.30;50.50;;;;;;345615;28;1050;-57
2023/11/24 00:45:37;;;;;;;10.72;5.20;;;10.20;50.50;;;;;;345696;28;860;-56
2023/11/24 00:45:48;;;;;;;11.38;5.38;;;10.30;50.50;;;;;;345722;28;896;-56
2023/11/24 00:45:58;;;;;;;11.02;5.20;;;10.20;50.50;;;;;;345677;28;885;-58
2023/11/24 00:46:10;;;;;;;10.88;5.13;;;10.20;50.60;;;;;;345547;28;1020;-57
2023/11/24 00:46:21;;;;;;;8.75;5.03;;;10.20;50.60;;;;;;345653;28;1158;-57
2023/11/24 00:46:32;;;;;;;8.50;4.95;;;10.20;50.60;;;;;;345633;28;991;-57
2023/11/24 00:46:43;;;;;;;8.85;4.78;;;10.20;50.60;;;;;;345628;28;939;-57
2023/11/24 00:46:54;;;;;;;10.85;4.80;;;10.30;50.60;;;;;;345583;28;908;-57
2023/11/24 00:47:05;;;;;;;9.35;4.90;;;10.30;50.60;;;;;;345676;28;841;-56
2023/11/24 00:47:17;;;;;;;10.35;4.75;;;10.20;50.60;;;;;;345630;28;976;-57
2023/11/24 00:47:28;;;;;;;9.60;4.90;;;10.20;50.60;;;;;;345663;28;1055;-57
2023/11/24 00:47:41;;;;;;;9.98;5.13;;;10.20;50.60;;;;;;345523;28;1465;-57
2023/11/24 00:47:51;;;;;;;8.32;4.93;;;10.20;50.60;;;;;;345641;28;1020;-56
2023/11/24 00:48:05;;;;;;;7.43;4.88;;;10.20;50.60;;;;;;345672;28;854;-57
2023/11/24 00:48:18;;;;;;;7.75;4.63;;;10.20;50.60;;;;;;345615;28;1127;-57
2023/11/24 00:48:28;;;;;;;7.60;4.63;;;10.20;50.70;;;;;;345576;28;1249;-57
2023/11/24 00:48:40;;;;;;;7.35;4.53;;;10.20;50.60;;;;;;345596;28;1032;-58
2023/11/24 00:48:51;;;;;;;8.05;4.85;;;10.20;50.60;;;;;;345609;28;1566;-58
2023/11/24 00:49:02;;;;;;;11.68;5.22;;;10.20;50.60;;;;;;345606;28;1518;-57
2023/11/24 00:49:13;;;;;;;11.23;5.22;;;10.30;50.60;;;;;;345593;28;968;-57
2023/11/24 00:49:23;;;;;;;9.60;4.73;;;10.20;50.60;;;;;;345677;28;915;-57
2023/11/24 00:49:34;;;;;;;7.78;4.90;;;10.20;50.60;;;;;;345623;28;1036;-58
2023/11/24 00:49:47;;;;;;;8.20;5.05;;;10.20;50.60;;;;;;345579;28;1099;-57
2023/11/24 00:49:58;;;;;;;8.77;5.32;;;10.20;50.60;;;;;;345568;28;1135;-58
2023/11/24 00:50:09;;;;;;;8.35;5.05;;;10.20;50.60;;;;;;345591;28;1099;-57
2023/11/24 00:50:20;;;;;;;8.23;4.78;;;10.20;50.60;;;;;;345681;28;1004;-57
2023/11/24 00:50:30;;;;;;;7.30;4.47;;;10.20;50.60;;;;;;345607;28;1087;-57
2023/11/24 00:50:41;;;;;;;6.63;4.33;;;10.20;50.60;;;;;;345604;28;1118;-59
2023/11/24 00:50:52;;;;;;;7.18;4.47;;;10.20;50.70;;;;;;345553;28;1003;-58
2023/11/24 00:51:04;;;;;;;7.50;4.80;;;10.20;50.70;;;;;;345625;28;1118;-58
2023/11/24 00:51:15;;;;;;;8.57;5.15;;;10.20;50.70;;;;;;345629;28;1068;-57
2023/11/24 00:51:25;;;;;;;8.23;5.00;;;10.20;50.70;;;;;;345659;28;1043;-58
2023/11/24 00:51:36;;;;;;;7.68;5.05;;;10.20;50.70;;;;;;345598;28;1045;-56
2023/11/24 00:51:47;;;;;;;7.57;5.13;;;10.20;50.70;;;;;;345611;28;1154;-57
2023/11/24 00:51:57;;;;;;;7.95;5.38;;;10.20;50.70;;;;;;345638;28;992;-57
2023/11/24 00:52:08;;;;;;;9.02;5.50;;;10.20;50.80;;;;;;345570;28;1092;-57
2023/11/24 00:52:19;;;;;;;9.75;5.47;;;10.20;50.80;;;;;;345645;28;818;-57
2023/11/24 00:52:30;;;;;;;10.73;5.18;;;10.20;50.80;;;;;;345611;28;924;-57
2023/11/24 00:52:41;;;;;;;10.47;5.20;;;10.20;50.80;;;;;;345570;28;1035;-57
2023/11/24 00:52:51;;;;;;;10.13;5.20;;;10.20;50.90;;;;;;345550;28;1155;-57
2023/11/24 00:53:02;;;;;;;8.63;5.35;;;10.20;50.90;;;;;;345536;28;1028;-59
2023/11/24 00:53:13;;;;;;;10.27;5.30;;;10.20;50.90;;;;;;345649;28;988;-58
2023/11/24 00:53:24;;;;;;;11.18;5.35;;;10.20;51.00;;;;;;345545;28;1147;-57
2023/11/24 00:53:35;;;;;;;12.75;5.30;;;10.20;51.00;;;;;;345514;28;1048;-58
2023/11/24 00:53:46;;;;;;;11.98;5.65;;;10.20;51.00;;;;;;345588;28;1561;-56
2023/11/24 00:53:57;;;;;;;10.80;5.60;;;10.20;50.90;;;;;;345625;28;2451;-58
2023/11/24 00:54:09;;;;;;;9.50;5.88;;;10.20;50.90;;;;;;345469;28;1723;-58
2023/11/24 00:54:20;;;;;;;8.82;5.57;;;10.20;51.00;;;;;;345663;28;901;-56
2023/11/24 00:54:30;;;;;;;9.82;5.43;;;10.20;51.00;;;;;;345546;28;1737;-58
2023/11/24 00:54:41;;;;;;;9.27;4.97;;;10.20;51.00;;;;;;345497;28;1091;-57
2023/11/24 00:54:52;;;;;;;9.70;4.82;;;10.20;51.00;;;;;;345724;28;845;-57
2023/11/24 00:55:03;;;;;;;8.50;4.95;;;10.20;51.00;;;;;;345682;28;877;-58
2023/11/24 00:55:14;;;;;;;9.15;5.20;;;10.20;51.00;;;;;;345575;28;1039;-57
2023/11/24 00:55:26;;;;;;;8.53;5.30;;;10.20;51.00;;;;;;345576;28;1154;-57
2023/11/24 00:55:37;;;;;;;8.23;5.05;;;10.20;50.90;;;;;;345637;28;1087;-56
2023/11/24 00:55:47;;;;;;;8.52;5.00;;;10.20;51.00;;;;;;345491;28;928;-58
2023/11/24 00:55:58;;;;;;;9.02;5.10;;;10.20;50.90;;;;;;345637;28;1056;-57
2023/11/24 00:56:09;;;;;;;8.50;5.22;;;10.20;51.00;;;;;;345637;28;1019;-58
2023/11/24 00:56:20;;;;;;;8.68;5.30;;;10.20;51.00;;;;;;345511;28;1363;-57
2023/11/24 00:56:31;;;;;;;7.85;5.10;;;10.20;51.00;;;;;;345659;28;943;-57
2023/11/24 00:56:42;;;;;;;8.13;5.25;;;10.20;51.00;;;;;;345602;28;980;-57
2023/11/24 00:56:52;;;;;;;8.20;5.17;;;10.20;51.00;;;;;;345535;28;1091;-58
2023/11/24 00:57:05;;;;;;;7.88;4.97;;;10.20;51.00;;;;;;345618;28;2540;-56
2023/11/24 00:57:15;;;;;;;7.14;4.72;;;10.20;51.10;;;;;;345642;28;849;-56
2023/11/24 00:57:26;;;;;;;7.53;4.73;;;10.20;51.00;;;;;;345483;28;988;-57
2023/11/24 00:57:37;;;;;;;8.68;5.40;;;10.20;51.00;;;;;;345420;28;1658;-56
2023/11/24 00:57:47;;;;;;;8.63;5.30;;;10.20;51.00;;;;;;345564;28;822;-56
2023/11/24 00:57:58;;;;;;;9.13;5.22;;;10.20;51.00;;;;;;345523;28;981;-57
2023/11/24 00:58:09;;;;;;;9.80;4.97;;;10.20;51.00;;;;;;345460;28;1003;-56
2023/11/24 00:58:20;;;;;;;10.98;5.20;;;10.20;51.00;;;;;;345526;28;1276;-57
2023/11/24 00:58:31;;;;;;;9.90;5.13;;;10.20;51.00;;;;;;345525;28;1095;-56
2023/11/24 00:58:41;;;;;;;10.23;5.35;;;10.20;51.00;;;;;;345519;28;880;-56
2023/11/24 00:58:52;;;;;;;8.73;5.18;;;10.20;51.00;;;;;;345475;28;916;-57
2023/11/24 00:59:03;;;;;;;10.40;5.37;;;10.20;51.00;;;;;;345545;28;953;-57
2023/11/24 00:59:13;;;;;;;9.00;4.97;;;10.20;51.00;;;;;;345311;28;1472;-57
2023/11/24 00:59:24;;;;;;;8.93;4.78;;;10.20;50.90;;;;;;345507;28;1170;-57
2023/11/24 00:59:35;;;;;;;7.45;4.55;;;10.20;50.90;;;;;;345508;28;965;-57
2023/11/24 00:59:46;;;;;;;8.57;4.85;;;10.20;51.00;;;;;;345641;28;967;-56